createdAt,value
2023-03-02T00:01:56.691Z,5.97
2023-03-02T00:04:32.583Z,5.93
2023-03-02T00:07:05.129Z,5.94
2023-03-02T00:09:34.212Z,5.88
2023-03-02T00:12:02.945Z,5.90
2023-03-02T00:14:31.056Z,5.87
2023-03-02T00:16:59.080Z,5.80
2023-03-02T00:19:28.491Z,5.86
2023-03-02T00:21:56.840Z,5.93
2023-03-02T00:24:24.985Z,5.84
2023-03-02T00:26:53.142Z,5.89
2023-03-02T00:29:21.306Z,5.82
2023-03-02T00:31:49.642Z,5.81
2023-03-02T00:34:17.872Z,5.79
2023-03-02T00:36:49.358Z,5.77
2023-03-02T00:39:20.272Z,5.79
2023-03-02T00:41:49.352Z,5.75
2023-03-02T00:44:18.412Z,5.76
2023-03-02T00:46:47.153Z,5.69
2023-03-02T00:49:15.636Z,5.68
2023-03-02T00:51:43.715Z,5.60
2023-03-02T00:54:13.277Z,5.62
2023-03-02T00:56:41.418Z,5.61
2023-03-02T00:59:26.099Z,5.57
2023-03-02T01:02:02.068Z,5.52
2023-03-02T01:04:35.419Z,5.62
2023-03-02T01:07:06.539Z,5.55
2023-03-02T01:09:35.954Z,5.54
2023-03-02T01:12:05.532Z,5.43
2023-03-02T01:14:33.702Z,5.49
2023-03-02T01:17:01.760Z,5.43
2023-03-02T01:19:30.463Z,5.35
2023-03-02T01:21:58.883Z,5.33
2023-03-02T01:24:27.234Z,5.30
2023-03-02T01:26:56.819Z,5.38
2023-03-02T01:29:24.922Z,5.34
2023-03-02T01:31:53.413Z,5.36
2023-03-02T01:34:21.605Z,5.35
2023-03-02T01:36:49.684Z,5.28
2023-03-02T01:39:17.770Z,5.23
2023-03-02T01:41:50.294Z,5.26
2023-03-02T01:44:46.511Z,5.22
2023-03-02T01:47:20.952Z,5.16
2023-03-02T01:50:03.380Z,5.11
2023-03-02T01:52:38.347Z,5.10
2023-03-02T01:55:13.463Z,5.11
2023-03-02T01:57:46.827Z,5.19
2023-03-02T02:00:22.909Z,5.18
2023-03-02T02:02:54.256Z,5.16
2023-03-02T02:05:26.902Z,5.23
2023-03-02T02:07:55.102Z,5.15
2023-03-02T02:10:23.528Z,5.06
2023-03-02T02:12:51.976Z,5.03
2023-03-02T02:15:21.806Z,5.07
2023-03-02T02:17:51.025Z,5.10
2023-03-02T02:20:31.041Z,5.14
2023-03-02T02:23:25.693Z,5.15
2023-03-02T02:26:10.296Z,5.13
2023-03-02T02:28:43.472Z,5.01
2023-03-02T02:31:18.781Z,5.03
2023-03-02T02:33:54.271Z,5.06
2023-03-02T02:36:26.622Z,5.00
2023-03-02T02:38:57.228Z,4.95
2023-03-02T02:41:31.334Z,4.88
2023-03-02T02:43:59.789Z,4.84
2023-03-02T02:46:28.548Z,4.86
2023-03-02T02:48:57.926Z,4.94
2023-03-02T02:51:29.857Z,4.86
2023-03-02T02:54:00.846Z,4.85
2023-03-02T02:56:39.648Z,4.78
2023-03-02T02:59:18.408Z,4.78
2023-03-02T03:01:48.369Z,4.73
2023-03-02T03:04:21.800Z,4.70
2023-03-02T03:06:56.410Z,4.68
2023-03-02T03:09:25.883Z,4.64
2023-03-02T03:11:58.612Z,4.65
2023-03-02T03:14:30.520Z,4.66
2023-03-02T03:16:59.010Z,4.54
2023-03-02T03:19:30.132Z,4.51
2023-03-02T03:22:02.730Z,4.48
2023-03-02T03:24:36.479Z,4.47
2023-03-02T03:27:08.749Z,4.51
2023-03-02T03:29:44.454Z,4.48
2023-03-02T03:32:15.634Z,4.49
2023-03-02T03:34:44.366Z,4.48
2023-03-02T03:37:25.775Z,4.48
2023-03-02T03:39:54.409Z,4.41
2023-03-02T03:42:24.175Z,4.36
2023-03-02T03:44:53.745Z,4.45
2023-03-02T03:47:22.859Z,4.50
2023-03-02T03:49:52.293Z,4.46
2023-03-02T03:52:30.522Z,4.45
2023-03-02T03:55:06.075Z,4.45
2023-03-02T03:57:35.756Z,4.46
2023-03-02T04:00:07.932Z,4.47
2023-03-02T04:02:42.694Z,4.46
2023-03-02T04:05:13.056Z,4.38
2023-03-02T04:07:42.095Z,4.34
2023-03-02T04:10:12.988Z,4.26
2023-03-02T04:12:44.524Z,4.20
2023-03-02T04:15:18.002Z,4.15
2023-03-02T04:17:47.981Z,4.06
2023-03-02T04:20:20.063Z,4.09
2023-03-02T04:22:54.893Z,4.18
2023-03-02T04:25:26.240Z,4.13
2023-03-02T04:27:59.994Z,4.02
2023-03-02T04:30:35.836Z,4.03
2023-03-02T04:33:04.265Z,4.06
2023-03-02T04:35:33.871Z,4.00
2023-03-02T04:38:02.795Z,3.97
2023-03-02T04:40:31.160Z,4.05
2023-03-02T04:43:00.496Z,4.09
2023-03-02T04:45:28.532Z,3.99
2023-03-02T04:47:56.950Z,4.00
2023-03-02T04:50:25.598Z,3.99
2023-03-02T04:52:53.710Z,3.93
2023-03-02T04:55:24.988Z,3.97
2023-03-02T04:57:53.865Z,3.97
2023-03-02T05:00:23.997Z,3.97
2023-03-02T05:02:52.492Z,3.93
2023-03-02T05:05:24.746Z,3.96
2023-03-02T05:07:54.090Z,3.90
2023-03-02T05:10:25.506Z,3.86
2023-03-02T05:12:58.719Z,3.87
2023-03-02T05:15:33.983Z,3.82
2023-03-02T05:18:03.123Z,3.87
2023-03-02T05:20:31.948Z,3.88
2023-03-02T05:23:02.962Z,3.84
2023-03-02T05:25:34.289Z,3.80
2023-03-02T05:28:03.079Z,3.84
2023-03-02T05:30:37.330Z,3.84
2023-03-02T05:33:05.445Z,3.85
2023-03-02T05:35:33.492Z,3.82
2023-03-02T05:38:01.559Z,3.84
2023-03-02T05:40:29.803Z,3.83
2023-03-02T05:42:57.960Z,3.82
2023-03-02T05:45:29.549Z,3.81
2023-03-02T05:47:59.068Z,3.79
2023-03-02T05:50:27.134Z,3.80
2023-03-02T05:52:55.325Z,3.81
2023-03-02T05:55:23.607Z,3.90
2023-03-02T05:57:51.650Z,3.87
2023-03-02T06:00:21.716Z,3.96
2023-03-02T06:02:50.332Z,3.94
2023-03-02T06:05:22.619Z,3.94
2023-03-02T06:07:50.658Z,3.95
2023-03-02T06:10:18.994Z,4.03
2023-03-02T06:12:47.633Z,4.07
2023-03-02T06:15:15.735Z,4.11
2023-03-02T06:17:44.144Z,4.17
2023-03-02T06:20:14.086Z,4.23
2023-03-02T06:22:46.532Z,4.28
2023-03-02T06:25:18.468Z,4.32
2023-03-02T06:27:47.452Z,4.33
2023-03-02T06:30:18.086Z,4.42
2023-03-02T06:32:46.392Z,4.42
2023-03-02T06:35:14.996Z,4.47
2023-03-02T06:37:44.863Z,4.51
2023-03-02T06:40:14.590Z,4.64
2023-03-02T06:42:44.000Z,4.59
2023-03-02T06:45:13.471Z,4.59
2023-03-02T06:47:41.759Z,4.74
2023-03-02T06:50:11.913Z,4.85
2023-03-02T06:52:40.294Z,4.84
2023-03-02T06:55:11.189Z,4.81
2023-03-02T06:57:39.574Z,4.76
2023-03-02T07:00:17.019Z,4.81
2023-03-02T07:02:45.818Z,4.92
2023-03-02T07:05:14.313Z,4.93
2023-03-02T07:07:42.744Z,4.90
2023-03-02T07:10:14.328Z,4.96
2023-03-02T07:12:43.471Z,4.93
2023-03-02T07:15:14.241Z,4.97
2023-03-02T07:17:44.939Z,5.03
2023-03-02T07:20:16.509Z,4.99
2023-03-02T07:22:45.302Z,4.95
2023-03-02T07:25:15.101Z,4.89
2023-03-02T07:27:43.260Z,4.86
2023-03-02T07:30:14.790Z,5.00
2023-03-02T07:32:43.422Z,5.02
2023-03-02T07:35:11.821Z,5.09
2023-03-02T07:37:40.107Z,5.09
2023-03-02T07:40:11.498Z,5.11
2023-03-02T07:42:41.215Z,5.09
2023-03-02T07:45:11.568Z,5.11
2023-03-02T07:47:39.587Z,5.16
2023-03-02T07:50:09.812Z,5.25
2023-03-02T07:52:37.851Z,5.25
2023-03-02T07:55:06.919Z,5.15
2023-03-02T07:57:34.997Z,5.14
2023-03-02T08:00:05.344Z,5.18
2023-03-02T08:02:41.201Z,5.17
2023-03-02T08:05:10.507Z,5.26
2023-03-02T08:07:38.673Z,5.33
2023-03-02T08:10:07.768Z,5.32
2023-03-02T08:12:35.850Z,5.30
2023-03-02T08:15:06.941Z,5.38
2023-03-02T08:17:35.004Z,5.35
2023-03-02T08:20:04.222Z,5.42
2023-03-02T08:22:32.301Z,5.38
2023-03-02T08:25:00.375Z,5.36
2023-03-02T08:27:28.491Z,5.38
2023-03-02T08:29:57.457Z,5.43
2023-03-02T08:32:27.083Z,5.50
2023-03-02T08:34:55.294Z,5.59
2023-03-02T08:37:23.615Z,5.68
2023-03-02T08:39:52.354Z,5.60
2023-03-02T08:42:20.418Z,5.55
2023-03-02T08:44:48.446Z,5.68
2023-03-02T08:47:16.490Z,5.78
2023-03-02T08:49:47.996Z,5.77
2023-03-02T08:52:16.265Z,5.75
2023-03-02T08:54:45.013Z,5.76
2023-03-02T08:57:13.382Z,5.77
2023-03-02T08:59:41.457Z,5.88
2023-03-02T09:02:12.750Z,6.03
2023-03-02T09:04:40.838Z,6.03
2023-03-02T09:07:10.912Z,6.11
2023-03-02T09:09:39.220Z,6.18
2023-03-02T09:12:07.715Z,6.07
2023-03-02T09:14:36.177Z,6.13
2023-03-02T09:17:05.483Z,6.16
2023-03-02T09:19:43.279Z,6.28
2023-03-02T09:22:13.861Z,6.43
2023-03-02T09:24:43.913Z,6.37
2023-03-02T09:27:11.936Z,6.39
2023-03-02T09:29:40.006Z,6.39
2023-03-02T09:32:09.483Z,6.40
2023-03-02T09:34:37.613Z,6.55
2023-03-02T09:37:05.616Z,6.57
2023-03-02T09:39:34.962Z,6.55
2023-03-02T09:42:22.874Z,6.66
2023-03-02T09:45:11.860Z,6.71
2023-03-02T09:47:56.345Z,6.73
2023-03-02T09:50:32.377Z,6.72
2023-03-02T09:53:24.270Z,6.88
2023-03-02T09:56:00.186Z,6.98
2023-03-02T09:58:36.419Z,6.92
2023-03-02T10:01:15.414Z,7.07
2023-03-02T10:03:53.591Z,7.06
2023-03-02T10:06:21.749Z,7.05
2023-03-02T10:08:50.964Z,7.12
2023-03-02T10:11:31.504Z,7.27
2023-03-02T10:14:05.562Z,7.19
2023-03-02T10:16:40.736Z,7.25
2023-03-02T10:19:18.403Z,7.39
2023-03-02T10:21:49.781Z,7.42
2023-03-02T10:24:29.113Z,7.35
2023-03-02T10:27:09.304Z,7.38
2023-03-02T10:29:48.303Z,7.41
2023-03-02T10:32:21.973Z,7.58
2023-03-02T10:34:52.055Z,7.67
2023-03-02T10:37:25.289Z,7.69
2023-03-02T10:39:53.591Z,7.63
2023-03-02T10:42:29.781Z,7.68
2023-03-02T10:45:07.074Z,7.69
2023-03-02T10:47:35.223Z,7.76
2023-03-02T10:50:03.245Z,7.87
2023-03-02T10:52:31.322Z,7.93
2023-03-02T10:55:10.766Z,7.95
2023-03-02T10:57:43.282Z,7.99
2023-03-02T11:00:22.590Z,8.23
2023-03-02T11:02:53.437Z,8.31
2023-03-02T11:05:32.506Z,8.40
2023-03-02T11:08:04.686Z,8.35
2023-03-02T11:10:38.368Z,8.42
2023-03-02T11:13:20.676Z,8.51
2023-03-02T11:15:52.022Z,8.61
2023-03-02T11:18:29.340Z,8.72
2023-03-02T11:21:03.120Z,8.70
2023-03-02T11:23:46.735Z,8.86
2023-03-02T11:26:23.134Z,8.98
2023-03-02T11:29:02.583Z,9.01
2023-03-02T11:31:40.850Z,9.09
2023-03-02T11:34:31.378Z,9.15
2023-03-02T11:37:12.814Z,9.16
2023-03-02T11:40:04.941Z,9.23
2023-03-02T11:42:37.111Z,9.32
2023-03-02T11:45:21.619Z,9.32
2023-03-02T11:48:02.399Z,9.38
2023-03-02T11:50:33.647Z,9.41
2023-03-02T11:53:07.335Z,9.57
2023-03-02T11:55:44.137Z,9.72
2023-03-02T11:58:19.558Z,9.73
2023-03-02T12:00:50.867Z,9.83
2023-03-02T12:03:37.230Z,9.93
2023-03-02T12:06:08.780Z,9.87
2023-03-02T12:08:42.397Z,9.99
2023-03-02T12:11:35.227Z,10.02
2023-03-02T12:14:07.116Z,10.17
2023-03-02T12:16:40.838Z,10.33
2023-03-02T12:19:15.384Z,10.54
2023-03-02T12:21:56.234Z,10.66
2023-03-02T12:24:27.338Z,10.80
2023-03-02T12:27:05.246Z,10.69
2023-03-02T12:29:42.710Z,10.66
2023-03-02T12:32:25.582Z,10.69
2023-03-02T12:34:58.489Z,10.74
2023-03-02T12:37:29.376Z,10.88
2023-03-02T12:40:43.847Z,10.97
2023-03-02T12:43:31.798Z,10.97
2023-03-02T12:46:40.292Z,10.88
2023-03-02T12:49:28.412Z,10.82
2023-03-02T12:51:58.141Z,10.93
2023-03-02T12:54:29.418Z,11.02
2023-03-02T12:57:09.144Z,10.98
2023-03-02T12:59:37.788Z,10.96
2023-03-02T13:02:16.143Z,10.89
2023-03-02T13:04:45.984Z,10.91
2023-03-02T13:07:19.449Z,10.86
2023-03-02T13:09:56.772Z,10.84
2023-03-02T13:12:29.201Z,10.87
2023-03-02T13:15:00.404Z,10.76
2023-03-02T13:17:31.266Z,10.85
2023-03-02T13:20:05.030Z,10.97
2023-03-02T13:22:33.429Z,10.99
2023-03-02T13:25:05.406Z,11.06
2023-03-02T13:27:34.719Z,11.22
2023-03-02T13:30:23.844Z,11.33
2023-03-02T13:32:54.307Z,11.31
2023-03-02T13:35:27.578Z,11.28
2023-03-02T13:38:03.186Z,11.32
2023-03-02T13:40:44.632Z,11.44
2023-03-02T13:43:38.877Z,11.49
2023-03-02T13:46:28.589Z,11.29
2023-03-02T13:49:09.615Z,11.44
2023-03-02T13:51:44.026Z,11.42
2023-03-02T13:54:22.286Z,11.46
2023-03-02T13:56:52.147Z,11.46
2023-03-02T13:59:22.872Z,11.47
2023-03-02T14:01:51.023Z,11.45
2023-03-02T14:04:23.256Z,11.40
2023-03-02T14:06:55.031Z,11.27
2023-03-02T14:09:23.661Z,11.32
2023-03-02T14:11:55.601Z,11.40
2023-03-02T14:14:26.597Z,11.42
2023-03-02T14:16:54.666Z,11.55
2023-03-02T14:19:22.712Z,11.68
2023-03-02T14:21:52.082Z,11.73
2023-03-02T14:24:20.132Z,11.77
2023-03-02T14:26:49.890Z,11.73
2023-03-02T14:29:26.133Z,11.73
2023-03-02T14:31:55.100Z,11.68
2023-03-02T14:34:23.456Z,11.60
2023-03-02T14:36:57.273Z,11.52
2023-03-02T14:39:33.213Z,11.51
2023-03-02T14:42:01.453Z,11.58
2023-03-02T14:44:29.617Z,11.59
2023-03-02T14:46:58.330Z,11.61
2023-03-02T14:49:26.460Z,11.56
2023-03-02T14:52:03.909Z,11.60
2023-03-02T14:54:40.279Z,11.60
2023-03-02T14:57:18.866Z,11.58
2023-03-02T14:59:47.530Z,11.48
2023-03-02T15:02:25.270Z,11.47
2023-03-02T15:04:56.100Z,11.49
2023-03-02T15:07:27.773Z,11.53
2023-03-02T15:09:56.563Z,11.54
2023-03-02T15:12:25.626Z,11.55
2023-03-02T15:14:53.962Z,11.52
2023-03-02T15:17:22.075Z,11.54
2023-03-02T15:19:50.193Z,11.52
2023-03-02T15:22:18.888Z,11.56
2023-03-02T15:24:48.426Z,11.59
2023-03-02T15:27:16.529Z,11.61
2023-03-02T15:29:45.766Z,11.59
2023-03-02T15:32:14.419Z,11.65
2023-03-02T15:34:42.862Z,11.60
2023-03-02T15:37:11.977Z,11.65
2023-03-02T15:39:40.200Z,11.70
2023-03-02T15:42:10.128Z,11.73
2023-03-02T15:44:39.775Z,11.76
2023-03-02T15:47:07.905Z,11.77
2023-03-02T15:49:35.942Z,11.79
2023-03-02T15:52:04.455Z,11.80
2023-03-02T15:54:32.536Z,11.55
2023-03-02T15:57:00.743Z,11.54
2023-03-02T15:59:31.900Z,11.55
2023-03-02T16:02:02.209Z,11.47
2023-03-02T16:04:32.949Z,11.51
2023-03-02T16:07:01.538Z,11.51
2023-03-02T16:09:30.880Z,11.51
2023-03-02T16:11:59.214Z,11.54
2023-03-02T16:14:28.671Z,11.41
2023-03-02T16:16:57.278Z,11.39
2023-03-02T16:19:25.484Z,11.38
2023-03-02T16:21:53.951Z,11.30
2023-03-02T16:24:22.104Z,11.31
2023-03-02T16:26:50.890Z,11.30
2023-03-02T16:29:19.123Z,11.29
2023-03-02T16:31:49.254Z,11.30
2023-03-02T16:34:17.902Z,11.29
2023-03-02T16:36:46.207Z,11.22
2023-03-02T16:39:15.059Z,11.22
2023-03-02T16:41:46.071Z,11.17
2023-03-02T16:44:15.982Z,11.17
2023-03-02T16:46:44.525Z,11.12
2023-03-02T16:49:15.409Z,11.05
2023-03-02T16:51:44.410Z,10.99
2023-03-02T16:54:16.014Z,10.95
2023-03-02T16:56:45.362Z,10.92
2023-03-02T16:59:13.751Z,10.88
2023-03-02T17:01:42.968Z,10.78
2023-03-02T17:04:11.246Z,10.72
2023-03-02T17:06:59.806Z,10.67
2023-03-02T17:09:29.005Z,10.55
2023-03-02T17:11:57.670Z,10.47
2023-03-02T17:14:26.024Z,10.42
2023-03-02T17:16:54.644Z,10.36
2023-03-02T17:19:23.577Z,10.29
2023-03-02T17:21:52.968Z,10.25
2023-03-02T17:24:21.054Z,10.20
2023-03-02T17:26:49.214Z,10.14
2023-03-02T17:29:17.433Z,10.09
2023-03-02T17:31:45.893Z,9.99
2023-03-02T17:34:14.635Z,9.90
2023-03-02T17:36:43.151Z,9.86
2023-03-02T17:39:13.003Z,9.80
2023-03-02T17:41:41.148Z,9.75
2023-03-02T17:44:09.164Z,9.65
2023-03-02T17:46:37.383Z,9.66
2023-03-02T17:49:05.611Z,9.54
2023-03-02T17:51:33.961Z,9.66
2023-03-02T17:54:02.153Z,9.59
2023-03-02T17:56:31.652Z,9.54
2023-03-02T17:59:02.210Z,9.38
2023-03-02T18:01:32.065Z,9.46
2023-03-02T18:04:01.346Z,9.47
2023-03-02T18:06:29.836Z,9.40
2023-03-02T18:08:58.004Z,9.34
2023-03-02T18:11:27.146Z,9.23
2023-03-02T18:13:57.882Z,9.28
2023-03-02T18:16:29.275Z,9.32
2023-03-02T18:18:57.717Z,9.37
2023-03-02T18:21:25.786Z,9.26
2023-03-02T18:23:55.142Z,9.22
2023-03-02T18:26:23.381Z,9.18
2023-03-02T18:28:51.559Z,9.14
2023-03-02T18:31:21.661Z,9.09
2023-03-02T18:33:50.455Z,9.07
2023-03-02T18:36:19.352Z,9.08
2023-03-02T18:38:47.461Z,8.98
2023-03-02T18:41:16.306Z,8.96
2023-03-02T18:43:44.475Z,8.96
2023-03-02T18:46:22.059Z,8.85
2023-03-02T18:48:51.036Z,8.76
2023-03-02T18:51:19.936Z,8.74
2023-03-02T18:53:49.305Z,8.63
2023-03-02T18:56:17.549Z,8.54
2023-03-02T18:58:46.575Z,8.50
2023-03-02T19:01:14.974Z,8.48
2023-03-02T19:03:45.660Z,8.43
2023-03-02T19:06:14.232Z,8.40
2023-03-02T19:08:42.371Z,8.35
2023-03-02T19:11:11.637Z,8.34
2023-03-02T19:13:39.724Z,8.25
2023-03-02T19:16:08.758Z,8.21
2023-03-02T19:18:37.881Z,8.15
2023-03-02T19:21:07.902Z,8.10
2023-03-02T19:23:36.122Z,7.99
2023-03-02T19:26:04.880Z,8.12
2023-03-02T19:28:34.353Z,8.05
2023-03-02T19:31:06.793Z,7.96
2023-03-02T19:33:35.487Z,8.05
2023-03-02T19:36:04.068Z,8.01
2023-03-02T19:38:33.690Z,7.81
2023-03-02T19:41:02.913Z,7.79
2023-03-02T19:43:31.235Z,7.76
2023-03-02T19:46:00.892Z,7.77
2023-03-02T19:48:29.877Z,7.67
2023-03-02T19:50:58.155Z,7.67
2023-03-02T19:53:26.252Z,7.58
2023-03-02T19:56:02.177Z,7.58
2023-03-02T19:58:32.317Z,7.47
2023-03-02T20:01:01.724Z,7.48
2023-03-02T20:03:30.029Z,7.47
2023-03-02T20:05:59.553Z,7.40
2023-03-02T20:08:27.737Z,7.33
2023-03-02T20:10:57.186Z,7.38
2023-03-02T20:13:27.171Z,7.38
2023-03-02T20:15:55.423Z,7.28
2023-03-02T20:18:23.482Z,7.31
2023-03-02T20:20:51.529Z,7.21
2023-03-02T20:23:19.704Z,7.19
2023-03-02T20:25:48.585Z,7.16
2023-03-02T20:28:23.550Z,7.20
2023-03-02T20:30:55.877Z,7.12
2023-03-02T20:33:31.303Z,7.02
2023-03-02T20:36:02.080Z,7.03
2023-03-02T20:38:34.869Z,6.99
2023-03-02T20:41:05.247Z,6.98
2023-03-02T20:43:35.292Z,6.92
2023-03-02T20:46:03.522Z,6.89
2023-03-02T20:48:31.735Z,6.82
2023-03-02T20:51:00.367Z,6.70
2023-03-02T20:53:29.412Z,6.80
2023-03-02T20:55:58.846Z,6.75
2023-03-02T20:58:26.917Z,6.66
2023-03-02T21:00:57.259Z,6.62
2023-03-02T21:03:25.356Z,6.63
2023-03-02T21:05:53.613Z,6.72
2023-03-02T21:08:21.855Z,6.61
2023-03-02T21:10:50.054Z,6.56
2023-03-02T21:13:19.574Z,6.50
2023-03-02T21:15:47.806Z,6.51
2023-03-02T21:18:17.648Z,6.40
2023-03-02T21:20:45.940Z,6.48
2023-03-02T21:23:14.987Z,6.48
2023-03-02T21:25:43.864Z,6.40
2023-03-02T21:28:12.172Z,6.31
2023-03-02T21:30:40.247Z,6.36
2023-03-02T21:33:08.483Z,6.31
2023-03-02T21:35:38.108Z,6.31
2023-03-02T21:38:06.478Z,6.17
2023-03-02T21:40:38.673Z,6.18
2023-03-02T21:43:07.501Z,6.14
2023-03-02T21:45:37.919Z,6.18
2023-03-02T21:48:07.631Z,6.09
2023-03-02T21:50:40.500Z,6.12
2023-03-02T21:53:08.772Z,6.09
2023-03-02T21:55:37.832Z,6.09
2023-03-02T21:58:06.447Z,6.10
2023-03-02T22:00:38.635Z,6.13
2023-03-02T22:03:07.808Z,6.12
2023-03-02T22:05:37.928Z,6.15
2023-03-02T22:08:06.669Z,6.05
2023-03-02T22:10:41.973Z,5.99
2023-03-02T22:13:24.019Z,5.96
2023-03-02T22:16:06.875Z,5.96
2023-03-02T22:18:34.900Z,6.04
2023-03-02T22:21:23.900Z,5.95
2023-03-02T22:23:55.197Z,5.89
2023-03-02T22:26:23.294Z,5.81
2023-03-02T22:28:52.191Z,5.82
2023-03-02T22:31:23.179Z,5.81
2023-03-02T22:33:51.428Z,5.81
2023-03-02T22:36:23.979Z,5.75
2023-03-02T22:38:52.580Z,5.73
2023-03-02T22:41:21.410Z,5.70
2023-03-02T22:43:50.381Z,5.68
2023-03-02T22:46:21.676Z,5.67
2023-03-02T22:48:51.989Z,5.87
2023-03-02T22:51:24.299Z,5.94
2023-03-02T22:53:55.324Z,5.87
2023-03-02T22:56:31.716Z,5.86
2023-03-02T22:59:03.776Z,5.85
2023-03-02T23:01:40.653Z,5.85
2023-03-02T23:04:21.100Z,5.83
2023-03-02T23:06:53.320Z,5.79
2023-03-02T23:09:24.953Z,5.79
2023-03-02T23:11:55.532Z,5.83
2023-03-02T23:14:27.561Z,5.87
2023-03-02T23:17:00.843Z,5.81
2023-03-02T23:19:31.349Z,5.76
2023-03-02T23:22:05.068Z,5.66
2023-03-02T23:24:33.072Z,5.70
2023-03-02T23:27:01.078Z,5.68
2023-03-02T23:29:29.367Z,5.73
2023-03-02T23:31:58.156Z,5.71
2023-03-02T23:34:26.420Z,5.78
2023-03-02T23:36:54.468Z,5.77
2023-03-02T23:39:23.864Z,5.83
2023-03-02T23:41:52.033Z,5.77
2023-03-02T23:44:20.566Z,5.81
2023-03-02T23:46:49.271Z,5.86
2023-03-02T23:49:17.585Z,5.82
2023-03-02T23:51:45.860Z,5.82
2023-03-02T23:54:14.037Z,5.92
2023-03-02T23:56:43.504Z,5.85
2023-03-02T23:59:11.516Z,5.90
